sensor_id;sensor_type;location;lat;lon;timestamp;temperature;humidity
1021;DHT22;499;42.648;23.270;2023-06-22T00:01:22;17.80;40.70
1021;DHT22;499;42.648;23.270;2023-06-22T00:03:51;17.90;41.20
1021;DHT22;499;42.648;23.270;2023-06-22T00:06:18;17.90;40.10
1021;DHT22;499;42.648;23.270;2023-06-22T00:08:45;17.90;42.60
1021;DHT22;499;42.648;23.270;2023-06-22T00:11:12;18.00;42.50
1021;DHT22;499;42.648;23.270;2023-06-22T00:13:39;17.90;42.60
1021;DHT22;499;42.648;23.270;2023-06-22T00:16:06;17.90;44.10
1021;DHT22;499;42.648;23.270;2023-06-22T00:18:33;17.80;43.00
1021;DHT22;499;42.648;23.270;2023-06-22T00:21:01;17.70;43.00
1021;DHT22;499;42.648;23.270;2023-06-22T00:23:29;17.70;43.50
1021;DHT22;499;42.648;23.270;2023-06-22T00:25:59;17.60;45.10
1021;DHT22;499;42.648;23.270;2023-06-22T00:28:26;17.50;47.00
1021;DHT22;499;42.648;23.270;2023-06-22T00:30:54;17.50;48.90
1021;DHT22;499;42.648;23.270;2023-06-22T00:33:21;17.40;51.60
1021;DHT22;499;42.648;23.270;2023-06-22T00:35:48;17.30;55.10
1021;DHT22;499;42.648;23.270;2023-06-22T00:38:19;17.30;55.70
1021;DHT22;499;42.648;23.270;2023-06-22T00:40:46;17.20;56.00
1021;DHT22;499;42.648;23.270;2023-06-22T00:43:13;17.20;59.40
1021;DHT22;499;42.648;23.270;2023-06-22T00:45:41;17.10;59.50
1021;DHT22;499;42.648;23.270;2023-06-22T00:48:08;17.10;60.20
1021;DHT22;499;42.648;23.270;2023-06-22T00:50:36;17.10;60.50
1021;DHT22;499;42.648;23.270;2023-06-22T00:53:05;17.00;61.00
1021;DHT22;499;42.648;23.270;2023-06-22T00:55:35;17.00;63.50
1021;DHT22;499;42.648;23.270;2023-06-22T00:58:04;17.00;65.30
1021;DHT22;499;42.648;23.270;2023-06-22T01:00:35;17.00;68.10
1021;DHT22;499;42.648;23.270;2023-06-22T01:03:03;17.00;67.10
1021;DHT22;499;42.648;23.270;2023-06-22T01:05:34;17.00;66.90
1021;DHT22;499;42.648;23.270;2023-06-22T01:08:12;17.10;65.40
1021;DHT22;499;42.648;23.270;2023-06-22T01:10:48;17.10;66.70
1021;DHT22;499;42.648;23.270;2023-06-22T01:13:25;17.00;68.50
1021;DHT22;499;42.648;23.270;2023-06-22T01:15:59;16.90;69.30
1021;DHT22;499;42.648;23.270;2023-06-22T01:18:30;16.90;69.70
1021;DHT22;499;42.648;23.270;2023-06-22T01:20:57;16.80;69.50
1021;DHT22;499;42.648;23.270;2023-06-22T01:23:29;16.80;70.30
1021;DHT22;499;42.648;23.270;2023-06-22T01:26:06;16.70;73.40
1021;DHT22;499;42.648;23.270;2023-06-22T01:28:45;16.70;77.70
1021;DHT22;499;42.648;23.270;2023-06-22T01:31:15;16.70;79.60
1021;DHT22;499;42.648;23.270;2023-06-22T01:33:44;16.70;79.10
1021;DHT22;499;42.648;23.270;2023-06-22T01:36:11;16.60;79.50
1021;DHT22;499;42.648;23.270;2023-06-22T01:38:39;16.60;79.50
1021;DHT22;499;42.648;23.270;2023-06-22T01:41:07;16.60;76.00
1021;DHT22;499;42.648;23.270;2023-06-22T01:43:34;16.50;76.10
1021;DHT22;499;42.648;23.270;2023-06-22T01:46:04;16.50;76.40
1021;DHT22;499;42.648;23.270;2023-06-22T01:48:31;16.50;77.00
1021;DHT22;499;42.648;23.270;2023-06-22T01:50:59;16.50;78.20
1021;DHT22;499;42.648;23.270;2023-06-22T01:53:26;16.50;77.10
1021;DHT22;499;42.648;23.270;2023-06-22T01:55:53;16.50;76.60
1021;DHT22;499;42.648;23.270;2023-06-22T01:58:23;16.50;77.40
1021;DHT22;499;42.648;23.270;2023-06-22T02:00:55;16.50;78.00
1021;DHT22;499;42.648;23.270;2023-06-22T02:03:27;16.50;81.00
1021;DHT22;499;42.648;23.270;2023-06-22T02:06:01;16.50;83.20
1021;DHT22;499;42.648;23.270;2023-06-22T02:08:34;16.40;81.90
1021;DHT22;499;42.648;23.270;2023-06-22T02:11:02;16.40;81.00
1021;DHT22;499;42.648;23.270;2023-06-22T02:13:31;16.50;80.90
1021;DHT22;499;42.648;23.270;2023-06-22T02:15:59;16.40;82.90
1021;DHT22;499;42.648;23.270;2023-06-22T02:18:28;16.40;84.80
1021;DHT22;499;42.648;23.270;2023-06-22T02:20:55;16.40;86.70
1021;DHT22;499;42.648;23.270;2023-06-22T02:23:22;16.30;85.90
1021;DHT22;499;42.648;23.270;2023-06-22T02:25:49;16.30;85.70
1021;DHT22;499;42.648;23.270;2023-06-22T02:28:16;16.30;87.10
1021;DHT22;499;42.648;23.270;2023-06-22T02:30:43;16.30;89.20
1021;DHT22;499;42.648;23.270;2023-06-22T02:33:10;16.30;89.70
1021;DHT22;499;42.648;23.270;2023-06-22T02:35:39;16.50;87.80
1021;DHT22;499;42.648;23.270;2023-06-22T02:38:11;16.40;89.60
1021;DHT22;499;42.648;23.270;2023-06-22T02:40:38;16.40;90.40
1021;DHT22;499;42.648;23.270;2023-06-22T02:43:05;16.40;91.40
1021;DHT22;499;42.648;23.270;2023-06-22T02:45:32;16.40;91.50
1021;DHT22;499;42.648;23.270;2023-06-22T02:47:59;16.40;91.50
1021;DHT22;499;42.648;23.270;2023-06-22T02:50:26;16.30;91.80
1021;DHT22;499;42.648;23.270;2023-06-22T02:52:54;16.40;92.80
1021;DHT22;499;42.648;23.270;2023-06-22T02:55:21;16.40;92.10
1021;DHT22;499;42.648;23.270;2023-06-22T02:57:49;16.40;92.60
1021;DHT22;499;42.648;23.270;2023-06-22T03:00:18;16.60;91.80
1021;DHT22;499;42.648;23.270;2023-06-22T03:02:46;16.70;89.80
1021;DHT22;499;42.648;23.270;2023-06-22T03:05:14;16.70;89.00
1021;DHT22;499;42.648;23.270;2023-06-22T03:07:44;16.70;90.40
1021;DHT22;499;42.648;23.270;2023-06-22T03:10:13;16.90;90.30
1021;DHT22;499;42.648;23.270;2023-06-22T03:12:41;17.20;89.50
1021;DHT22;499;42.648;23.270;2023-06-22T03:15:11;17.40;86.70
1021;DHT22;499;42.648;23.270;2023-06-22T03:17:39;17.50;81.20
1021;DHT22;499;42.648;23.270;2023-06-22T03:20:07;17.70;81.30
1021;DHT22;499;42.648;23.270;2023-06-22T03:22:36;18.00;76.70
1021;DHT22;499;42.648;23.270;2023-06-22T03:25:04;18.30;71.50
1021;DHT22;499;42.648;23.270;2023-06-22T03:27:36;18.70;68.00
1021;DHT22;499;42.648;23.270;2023-06-22T03:30:05;19.20;60.60
1021;DHT22;499;42.648;23.270;2023-06-22T03:32:32;19.60;53.70
1021;DHT22;499;42.648;23.270;2023-06-22T03:34:59;20.00;49.20
1021;DHT22;499;42.648;23.270;2023-06-22T03:37:27;20.50;44.90
1021;DHT22;499;42.648;23.270;2023-06-22T03:39:55;20.90;41.40
1021;DHT22;499;42.648;23.270;2023-06-22T03:42:22;21.10;39.00
1021;DHT22;499;42.648;23.270;2023-06-22T03:44:50;21.10;36.00
1021;DHT22;499;42.648;23.270;2023-06-22T03:47:17;20.90;35.60
1021;DHT22;499;42.648;23.270;2023-06-22T03:49:44;20.80;35.50
1021;DHT22;499;42.648;23.270;2023-06-22T03:52:12;20.50;34.30
1021;DHT22;499;42.648;23.270;2023-06-22T03:54:39;20.30;34.10
1021;DHT22;499;42.648;23.270;2023-06-22T03:57:06;20.20;35.30
1021;DHT22;499;42.648;23.270;2023-06-22T03:59:33;20.20;35.00
1021;DHT22;499;42.648;23.270;2023-06-22T04:02:02;20.10;35.60
1021;DHT22;499;42.648;23.270;2023-06-22T04:04:29;20.10;37.10
1021;DHT22;499;42.648;23.270;2023-06-22T04:06:57;20.10;37.50
1021;DHT22;499;42.648;23.270;2023-06-22T04:09:23;20.00;37.10
1021;DHT22;499;42.648;23.270;2023-06-22T04:11:51;20.00;38.60
1021;DHT22;499;42.648;23.270;2023-06-22T04:14:18;20.10;39.70
1021;DHT22;499;42.648;23.270;2023-06-22T04:16:45;20.10;39.80
1021;DHT22;499;42.648;23.270;2023-06-22T04:19:14;20.20;42.60
1021;DHT22;499;42.648;23.270;2023-06-22T04:21:42;20.20;41.40
1021;DHT22;499;42.648;23.270;2023-06-22T04:24:09;20.30;41.30
1021;DHT22;499;42.648;23.270;2023-06-22T04:26:37;20.30;39.70
1021;DHT22;499;42.648;23.270;2023-06-22T04:29:07;20.40;37.60
1021;DHT22;499;42.648;23.270;2023-06-22T04:31:34;20.40;36.00
1021;DHT22;499;42.648;23.270;2023-06-22T04:34:02;20.40;37.70
1021;DHT22;499;42.648;23.270;2023-06-22T04:36:34;20.40;37.60
1021;DHT22;499;42.648;23.270;2023-06-22T04:39:04;20.30;39.90
1021;DHT22;499;42.648;23.270;2023-06-22T04:41:32;20.20;42.40
1021;DHT22;499;42.648;23.270;2023-06-22T04:44:11;20.20;44.60
1021;DHT22;499;42.648;23.270;2023-06-22T04:46:39;20.30;42.30
1021;DHT22;499;42.648;23.270;2023-06-22T04:49:06;20.50;42.20
1021;DHT22;499;42.648;23.270;2023-06-22T04:51:42;20.50;39.70
1021;DHT22;499;42.648;23.270;2023-06-22T04:54:09;20.70;39.20
1021;DHT22;499;42.648;23.270;2023-06-22T04:56:37;20.70;39.40
1021;DHT22;499;42.648;23.270;2023-06-22T04:59:06;20.60;40.40
1021;DHT22;499;42.648;23.270;2023-06-22T05:01:34;20.40;40.00
1021;DHT22;499;42.648;23.270;2023-06-22T05:04:01;20.30;39.90
1021;DHT22;499;42.648;23.270;2023-06-22T05:06:30;20.20;40.80
1021;DHT22;499;42.648;23.270;2023-06-22T05:08:59;20.20;39.80
1021;DHT22;499;42.648;23.270;2023-06-22T05:11:26;20.20;42.50
1021;DHT22;499;42.648;23.270;2023-06-22T05:13:54;20.40;40.00
1021;DHT22;499;42.648;23.270;2023-06-22T05:16:21;20.60;40.80
1021;DHT22;499;42.648;23.270;2023-06-22T05:18:53;20.80;40.20
1021;DHT22;499;42.648;23.270;2023-06-22T05:21:24;20.80;40.40
1021;DHT22;499;42.648;23.270;2023-06-22T05:23:52;20.90;41.80
1021;DHT22;499;42.648;23.270;2023-06-22T05:26:21;21.10;40.60
1021;DHT22;499;42.648;23.270;2023-06-22T05:28:48;21.00;40.50
1021;DHT22;499;42.648;23.270;2023-06-22T05:31:16;21.10;39.80
1021;DHT22;499;42.648;23.270;2023-06-22T05:33:47;21.10;38.80
1021;DHT22;499;42.648;23.270;2023-06-22T05:36:15;21.20;41.40
1021;DHT22;499;42.648;23.270;2023-06-22T05:38:42;21.30;39.40
1021;DHT22;499;42.648;23.270;2023-06-22T05:41:09;21.10;39.50
1021;DHT22;499;42.648;23.270;2023-06-22T05:43:37;21.30;40.80
1021;DHT22;499;42.648;23.270;2023-06-22T05:46:04;21.50;39.10
1021;DHT22;499;42.648;23.270;2023-06-22T05:48:31;21.70;37.30
1021;DHT22;499;42.648;23.270;2023-06-22T05:50:59;21.80;37.70
1021;DHT22;499;42.648;23.270;2023-06-22T05:53:26;21.80;34.40
1021;DHT22;499;42.648;23.270;2023-06-22T05:55:53;21.70;36.30
1021;DHT22;499;42.648;23.270;2023-06-22T05:58:20;21.70;37.80
1021;DHT22;499;42.648;23.270;2023-06-22T06:00:49;21.80;36.40
1021;DHT22;499;42.648;23.270;2023-06-22T06:03:16;21.90;36.40
1021;DHT22;499;42.648;23.270;2023-06-22T06:05:44;22.00;35.20
1021;DHT22;499;42.648;23.270;2023-06-22T06:08:11;22.00;35.30
1021;DHT22;499;42.648;23.270;2023-06-22T06:10:38;22.10;34.10
1021;DHT22;499;42.648;23.270;2023-06-22T06:13:05;22.20;34.10
1021;DHT22;499;42.648;23.270;2023-06-22T06:15:33;22.30;34.80
1021;DHT22;499;42.648;23.270;2023-06-22T06:18:01;22.40;32.50
1021;DHT22;499;42.648;23.270;2023-06-22T06:20:30;22.60;34.70
1021;DHT22;499;42.648;23.270;2023-06-22T06:22:58;22.70;33.70
1021;DHT22;499;42.648;23.270;2023-06-22T06:25:25;22.50;31.50
1021;DHT22;499;42.648;23.270;2023-06-22T06:27:52;22.70;32.60
1021;DHT22;499;42.648;23.270;2023-06-22T06:30:21;22.90;32.40
1021;DHT22;499;42.648;23.270;2023-06-22T06:32:48;23.00;32.40
1021;DHT22;499;42.648;23.270;2023-06-22T06:35:17;23.20;30.40
1021;DHT22;499;42.648;23.270;2023-06-22T06:37:46;23.20;30.70
1021;DHT22;499;42.648;23.270;2023-06-22T06:40:14;23.30;32.70
1021;DHT22;499;42.648;23.270;2023-06-22T06:42:42;23.50;32.90
1021;DHT22;499;42.648;23.270;2023-06-22T06:45:11;23.70;28.60
1021;DHT22;499;42.648;23.270;2023-06-22T06:47:38;23.90;29.30
1021;DHT22;499;42.648;23.270;2023-06-22T06:50:06;23.80;28.60
1021;DHT22;499;42.648;23.270;2023-06-22T06:52:35;23.90;28.70
1021;DHT22;499;42.648;23.270;2023-06-22T06:55:02;24.40;27.60
1021;DHT22;499;42.648;23.270;2023-06-22T06:57:33;24.70;27.40
1021;DHT22;499;42.648;23.270;2023-06-22T07:00:00;24.90;26.20
1021;DHT22;499;42.648;23.270;2023-06-22T07:02:28;25.00;24.20
1021;DHT22;499;42.648;23.270;2023-06-22T07:04:55;25.20;23.30
1021;DHT22;499;42.648;23.270;2023-06-22T07:07:24;25.10;25.10
1021;DHT22;499;42.648;23.270;2023-06-22T07:09:52;25.20;26.10
1021;DHT22;499;42.648;23.270;2023-06-22T07:12:19;25.50;25.50
1021;DHT22;499;42.648;23.270;2023-06-22T07:14:46;25.60;22.80
1021;DHT22;499;42.648;23.270;2023-06-22T07:17:13;25.70;22.60
1021;DHT22;499;42.648;23.270;2023-06-22T07:19:40;25.50;23.10
1021;DHT22;499;42.648;23.270;2023-06-22T07:22:07;25.60;25.10
1021;DHT22;499;42.648;23.270;2023-06-22T07:24:34;25.80;24.40
1021;DHT22;499;42.648;23.270;2023-06-22T07:27:04;25.80;21.90
1021;DHT22;499;42.648;23.270;2023-06-22T07:29:32;25.90;22.80
1021;DHT22;499;42.648;23.270;2023-06-22T07:31:59;25.90;22.00
1021;DHT22;499;42.648;23.270;2023-06-22T07:34:26;25.70;21.90
1021;DHT22;499;42.648;23.270;2023-06-22T07:36:53;25.80;23.10
1021;DHT22;499;42.648;23.270;2023-06-22T07:39:20;25.70;24.20
1021;DHT22;499;42.648;23.270;2023-06-22T07:41:51;25.80;23.90
1021;DHT22;499;42.648;23.270;2023-06-22T07:44:19;25.90;23.50
1021;DHT22;499;42.648;23.270;2023-06-22T07:46:47;25.80;23.50
1021;DHT22;499;42.648;23.270;2023-06-22T07:49:14;25.80;23.60
1021;DHT22;499;42.648;23.270;2023-06-22T07:51:41;25.80;24.20
1021;DHT22;499;42.648;23.270;2023-06-22T07:54:09;25.90;24.00
1021;DHT22;499;42.648;23.270;2023-06-22T07:56:36;26.10;23.60
1021;DHT22;499;42.648;23.270;2023-06-22T07:59:03;26.00;23.30
1021;DHT22;499;42.648;23.270;2023-06-22T08:01:32;25.80;23.90
1021;DHT22;499;42.648;23.270;2023-06-22T08:03:59;25.90;23.80
1021;DHT22;499;42.648;23.270;2023-06-22T08:06:26;26.00;23.50
1021;DHT22;499;42.648;23.270;2023-06-22T08:08:53;26.00;22.80
1021;DHT22;499;42.648;23.270;2023-06-22T08:11:22;26.00;23.80
1021;DHT22;499;42.648;23.270;2023-06-22T08:13:51;26.10;23.50
1021;DHT22;499;42.648;23.270;2023-06-22T08:16:18;26.10;22.60
1021;DHT22;499;42.648;23.270;2023-06-22T08:18:47;26.00;22.60
1021;DHT22;499;42.648;23.270;2023-06-22T08:21:14;25.50;22.40
1021;DHT22;499;42.648;23.270;2023-06-22T08:23:41;25.60;25.40
1021;DHT22;499;42.648;23.270;2023-06-22T08:26:08;25.70;24.70
1021;DHT22;499;42.648;23.270;2023-06-22T08:28:35;25.80;24.60
1021;DHT22;499;42.648;23.270;2023-06-22T08:31:02;25.80;24.60
1021;DHT22;499;42.648;23.270;2023-06-22T08:33:29;25.70;23.80
1021;DHT22;499;42.648;23.270;2023-06-22T08:35:58;25.90;25.20
1021;DHT22;499;42.648;23.270;2023-06-22T08:38:25;25.90;23.50
1021;DHT22;499;42.648;23.270;2023-06-22T08:40:52;26.00;24.20
1021;DHT22;499;42.648;23.270;2023-06-22T08:43:19;25.90;24.40
1021;DHT22;499;42.648;23.270;2023-06-22T08:45:46;26.00;24.40
1021;DHT22;499;42.648;23.270;2023-06-22T08:48:13;26.00;24.90
1021;DHT22;499;42.648;23.270;2023-06-22T08:50:40;26.10;23.70
1021;DHT22;499;42.648;23.270;2023-06-22T08:53:09;26.10;22.90
1021;DHT22;499;42.648;23.270;2023-06-22T08:55:36;26.00;21.60
1021;DHT22;499;42.648;23.270;2023-06-22T08:58:03;25.90;22.00
1021;DHT22;499;42.648;23.270;2023-06-22T09:00:30;26.00;22.00
1021;DHT22;499;42.648;23.270;2023-06-22T09:03:00;26.20;22.10
1021;DHT22;499;42.648;23.270;2023-06-22T09:05:27;26.40;22.00
1021;DHT22;499;42.648;23.270;2023-06-22T09:07:55;26.50;22.30
1021;DHT22;499;42.648;23.270;2023-06-22T09:10:25;26.60;22.30
1021;DHT22;499;42.648;23.270;2023-06-22T09:12:53;26.60;21.70
1021;DHT22;499;42.648;23.270;2023-06-22T09:15:20;26.70;19.20
1021;DHT22;499;42.648;23.270;2023-06-22T09:17:47;26.90;19.10
1021;DHT22;499;42.648;23.270;2023-06-22T09:20:14;27.00;19.30
1021;DHT22;499;42.648;23.270;2023-06-22T09:22:41;27.00;17.80
1021;DHT22;499;42.648;23.270;2023-06-22T09:25:09;27.10;19.30
1021;DHT22;499;42.648;23.270;2023-06-22T09:27:37;27.00;17.20
1021;DHT22;499;42.648;23.270;2023-06-22T09:30:05;27.20;18.60
1021;DHT22;499;42.648;23.270;2023-06-22T09:32:33;27.20;17.40
1021;DHT22;499;42.648;23.270;2023-06-22T09:35:04;27.20;16.40
1021;DHT22;499;42.648;23.270;2023-06-22T09:37:32;27.10;16.60
1021;DHT22;499;42.648;23.270;2023-06-22T09:39:59;27.30;17.70
1021;DHT22;499;42.648;23.270;2023-06-22T09:42:26;27.30;17.50
1021;DHT22;499;42.648;23.270;2023-06-22T09:44:55;27.40;17.20
1021;DHT22;499;42.648;23.270;2023-06-22T09:47:22;27.50;16.30
1021;DHT22;499;42.648;23.270;2023-06-22T09:49:49;27.60;16.60
1021;DHT22;499;42.648;23.270;2023-06-22T09:52:16;27.50;15.30
1021;DHT22;499;42.648;23.270;2023-06-22T09:54:43;27.50;16.50
1021;DHT22;499;42.648;23.270;2023-06-22T09:57:10;27.60;16.70
1021;DHT22;499;42.648;23.270;2023-06-22T09:59:37;27.70;17.40
1021;DHT22;499;42.648;23.270;2023-06-22T10:02:07;27.80;15.90
1021;DHT22;499;42.648;23.270;2023-06-22T10:04:34;27.90;16.30
1021;DHT22;499;42.648;23.270;2023-06-22T10:07:01;28.00;14.90
1021;DHT22;499;42.648;23.270;2023-06-22T10:09:28;28.00;16.50
1021;DHT22;499;42.648;23.270;2023-06-22T10:11:55;28.00;14.90
1021;DHT22;499;42.648;23.270;2023-06-22T10:14:22;27.90;13.20
1021;DHT22;499;42.648;23.270;2023-06-22T10:16:51;28.10;13.90
1021;DHT22;499;42.648;23.270;2023-06-22T10:19:20;28.20;15.00
1021;DHT22;499;42.648;23.270;2023-06-22T10:21:47;28.30;12.30
1021;DHT22;499;42.648;23.270;2023-06-22T10:24:14;28.40;14.50
1021;DHT22;499;42.648;23.270;2023-06-22T10:26:41;28.50;13.40
1021;DHT22;499;42.648;23.270;2023-06-22T10:29:08;28.50;14.10
1021;DHT22;499;42.648;23.270;2023-06-22T10:31:35;28.70;15.20
1021;DHT22;499;42.648;23.270;2023-06-22T10:34:02;28.70;13.70
1021;DHT22;499;42.648;23.270;2023-06-22T10:36:30;28.60;11.80
1021;DHT22;499;42.648;23.270;2023-06-22T10:38:57;28.60;12.50
1021;DHT22;499;42.648;23.270;2023-06-22T10:41:25;28.70;12.20
1021;DHT22;499;42.648;23.270;2023-06-22T10:43:54;28.70;11.50
1021;DHT22;499;42.648;23.270;2023-06-22T10:46:21;28.50;10.40
1021;DHT22;499;42.648;23.270;2023-06-22T10:48:48;28.40;11.50
1021;DHT22;499;42.648;23.270;2023-06-22T10:51:15;28.40;11.90
1021;DHT22;499;42.648;23.270;2023-06-22T10:53:44;28.50;11.50
1021;DHT22;499;42.648;23.270;2023-06-22T10:56:11;28.60;11.00
1021;DHT22;499;42.648;23.270;2023-06-22T10:58:38;28.60;11.10
1021;DHT22;499;42.648;23.270;2023-06-22T11:01:06;28.40;10.80
1021;DHT22;499;42.648;23.270;2023-06-22T11:03:36;28.50;12.30
1021;DHT22;499;42.648;23.270;2023-06-22T11:06:07;28.50;11.30
1021;DHT22;499;42.648;23.270;2023-06-22T11:08:35;28.50;10.30
1021;DHT22;499;42.648;23.270;2023-06-22T11:11:06;28.50;10.30
1021;DHT22;499;42.648;23.270;2023-06-22T11:13:33;28.40;10.30
1021;DHT22;499;42.648;23.270;2023-06-22T11:16:00;28.40;9.20
1021;DHT22;499;42.648;23.270;2023-06-22T11:18:27;28.40;10.00
1021;DHT22;499;42.648;23.270;2023-06-22T11:20:54;28.30;9.30
1021;DHT22;499;42.648;23.270;2023-06-22T11:23:22;28.50;10.40
1021;DHT22;499;42.648;23.270;2023-06-22T11:25:53;28.60;9.10
1021;DHT22;499;42.648;23.270;2023-06-22T11:28:21;28.50;9.80
1021;DHT22;499;42.648;23.270;2023-06-22T11:30:48;28.70;10.50
1021;DHT22;499;42.648;23.270;2023-06-22T11:33:15;28.90;10.20
1021;DHT22;499;42.648;23.270;2023-06-22T11:35:43;29.30;10.20
1021;DHT22;499;42.648;23.270;2023-06-22T11:38:10;29.50;9.50
1021;DHT22;499;42.648;23.270;2023-06-22T11:40:37;29.50;9.20
1021;DHT22;499;42.648;23.270;2023-06-22T11:43:04;29.50;9.00
1021;DHT22;499;42.648;23.270;2023-06-22T11:45:33;29.50;8.40
1021;DHT22;499;42.648;23.270;2023-06-22T11:48:00;29.50;10.10
1021;DHT22;499;42.648;23.270;2023-06-22T11:50:27;29.60;8.10
1021;DHT22;499;42.648;23.270;2023-06-22T11:52:55;29.70;8.80
1021;DHT22;499;42.648;23.270;2023-06-22T11:55:22;29.40;8.50
1021;DHT22;499;42.648;23.270;2023-06-22T11:57:54;29.20;13.70
1021;DHT22;499;42.648;23.270;2023-06-22T12:00:21;29.30;13.80
1021;DHT22;499;42.648;23.270;2023-06-22T12:02:51;29.20;19.10
1021;DHT22;499;42.648;23.270;2023-06-22T12:05:19;28.70;21.00
1021;DHT22;499;42.648;23.270;2023-06-22T12:07:47;28.50;22.30
1021;DHT22;499;42.648;23.270;2023-06-22T12:10:14;28.30;22.30
1021;DHT22;499;42.648;23.270;2023-06-22T12:12:43;28.10;23.10
1021;DHT22;499;42.648;23.270;2023-06-22T12:15:10;27.90;23.00
1021;DHT22;499;42.648;23.270;2023-06-22T12:17:38;27.70;25.70
1021;DHT22;499;42.648;23.270;2023-06-22T12:20:08;27.30;25.00
1021;DHT22;499;42.648;23.270;2023-06-22T12:22:36;27.00;26.90
1021;DHT22;499;42.648;23.270;2023-06-22T12:25:05;26.50;27.50
1021;DHT22;499;42.648;23.270;2023-06-22T12:27:32;26.20;28.10
1021;DHT22;499;42.648;23.270;2023-06-22T12:30:00;25.90;27.80
1021;DHT22;499;42.648;23.270;2023-06-22T12:32:27;25.60;26.20
1021;DHT22;499;42.648;23.270;2023-06-22T12:34:54;25.10;29.00
1021;DHT22;499;42.648;23.270;2023-06-22T12:37:23;24.60;30.10
1021;DHT22;499;42.648;23.270;2023-06-22T12:39:50;24.10;33.40
1021;DHT22;499;42.648;23.270;2023-06-22T12:42:17;23.90;41.30
1021;DHT22;499;42.648;23.270;2023-06-22T12:44:44;23.20;44.40
1021;DHT22;499;42.648;23.270;2023-06-22T12:47:11;22.70;57.80
1021;DHT22;499;42.648;23.270;2023-06-22T12:49:39;22.30;67.70
1021;DHT22;499;42.648;23.270;2023-06-22T12:52:09;22.40;78.90
1021;DHT22;499;42.648;23.270;2023-06-22T12:54:38;22.50;75.00
1021;DHT22;499;42.648;23.270;2023-06-22T12:57:08;22.60;66.90
1021;DHT22;499;42.648;23.270;2023-06-22T12:59:36;22.80;73.00
1021;DHT22;499;42.648;23.270;2023-06-22T13:02:05;23.00;65.60
1021;DHT22;499;42.648;23.270;2023-06-22T13:04:33;23.10;66.30
1021;DHT22;499;42.648;23.270;2023-06-22T13:07:00;23.10;54.90
1021;DHT22;499;42.648;23.270;2023-06-22T13:09:27;23.10;64.00
1021;DHT22;499;42.648;23.270;2023-06-22T13:11:56;23.50;66.70
1021;DHT22;499;42.648;23.270;2023-06-22T13:14:23;23.80;65.50
1021;DHT22;499;42.648;23.270;2023-06-22T13:16:50;24.10;61.50
1021;DHT22;499;42.648;23.270;2023-06-22T13:19:17;23.90;51.30
1021;DHT22;499;42.648;23.270;2023-06-22T13:21:44;23.70;60.10
1021;DHT22;499;42.648;23.270;2023-06-22T13:24:11;23.60;64.90
1021;DHT22;499;42.648;23.270;2023-06-22T13:26:38;23.70;61.80
1021;DHT22;499;42.648;23.270;2023-06-22T13:29:07;23.80;61.20
1021;DHT22;499;42.648;23.270;2023-06-22T13:31:34;23.90;62.00
1021;DHT22;499;42.648;23.270;2023-06-22T13:34:01;24.00;58.00
1021;DHT22;499;42.648;23.270;2023-06-22T13:36:28;23.80;56.50
1021;DHT22;499;42.648;23.270;2023-06-22T13:38:56;23.80;57.20
1021;DHT22;499;42.648;23.270;2023-06-22T13:41:25;23.60;61.70
1021;DHT22;499;42.648;23.270;2023-06-22T13:43:52;23.40;56.00
1021;DHT22;499;42.648;23.270;2023-06-22T13:46:21;23.10;59.10
1021;DHT22;499;42.648;23.270;2023-06-22T13:48:48;22.90;66.10
1021;DHT22;499;42.648;23.270;2023-06-22T13:51:15;22.60;67.40
1021;DHT22;499;42.648;23.270;2023-06-22T13:53:42;22.40;66.90
1021;DHT22;499;42.648;23.270;2023-06-22T13:56:09;22.30;68.60
1021;DHT22;499;42.648;23.270;2023-06-22T13:58:36;22.10;72.70
1021;DHT22;499;42.648;23.270;2023-06-22T14:01:03;22.00;79.00
1021;DHT22;499;42.648;23.270;2023-06-22T14:03:32;21.90;76.90
1021;DHT22;499;42.648;23.270;2023-06-22T14:05:59;21.90;79.20
1021;DHT22;499;42.648;23.270;2023-06-22T14:08:26;21.80;81.30
1021;DHT22;499;42.648;23.270;2023-06-22T14:10:53;21.70;87.60
1021;DHT22;499;42.648;23.270;2023-06-22T14:13:20;21.70;89.30
1021;DHT22;499;42.648;23.270;2023-06-22T14:15:47;21.70;91.70
1021;DHT22;499;42.648;23.270;2023-06-22T14:18:17;21.60;90.00
1021;DHT22;499;42.648;23.270;2023-06-22T14:20:46;21.70;91.60
1021;DHT22;499;42.648;23.270;2023-06-22T14:23:13;21.80;91.80
1021;DHT22;499;42.648;23.270;2023-06-22T14:25:40;21.90;92.40
1021;DHT22;499;42.648;23.270;2023-06-22T14:28:07;21.90;92.00
1021;DHT22;499;42.648;23.270;2023-06-22T14:30:34;21.90;90.80
1021;DHT22;499;42.648;23.270;2023-06-22T14:33:01;21.90;88.50
1021;DHT22;499;42.648;23.270;2023-06-22T14:35:28;22.00;82.70
1021;DHT22;499;42.648;23.270;2023-06-22T14:37:56;22.00;82.00
1021;DHT22;499;42.648;23.270;2023-06-22T14:40:23;22.20;78.60
1021;DHT22;499;42.648;23.270;2023-06-22T14:42:50;22.20;77.30
1021;DHT22;499;42.648;23.270;2023-06-22T14:45:17;22.30;76.40
1021;DHT22;499;42.648;23.270;2023-06-22T14:47:44;22.40;77.40
1021;DHT22;499;42.648;23.270;2023-06-22T14:50:11;22.50;77.60
1021;DHT22;499;42.648;23.270;2023-06-22T14:52:38;22.70;77.30
1021;DHT22;499;42.648;23.270;2023-06-22T14:55:08;22.80;76.00
1021;DHT22;499;42.648;23.270;2023-06-22T14:57:35;22.90;76.00
1021;DHT22;499;42.648;23.270;2023-06-22T15:00:04;23.00;74.20
1021;DHT22;499;42.648;23.270;2023-06-22T15:02:32;23.10;71.00
1021;DHT22;499;42.648;23.270;2023-06-22T15:04:59;23.30;70.00
1021;DHT22;499;42.648;23.270;2023-06-22T15:07:26;23.40;67.50
1021;DHT22;499;42.648;23.270;2023-06-22T15:09:53;23.60;62.10
1021;DHT22;499;42.648;23.270;2023-06-22T15:12:22;23.60;57.60
1021;DHT22;499;42.648;23.270;2023-06-22T15:14:49;23.60;57.00
1021;DHT22;499;42.648;23.270;2023-06-22T15:17:16;23.70;57.00
1021;DHT22;499;42.648;23.270;2023-06-22T15:19:43;23.80;58.10
1021;DHT22;499;42.648;23.270;2023-06-22T15:22:10;23.80;57.50
1021;DHT22;499;42.648;23.270;2023-06-22T15:24:38;23.80;54.00
1021;DHT22;499;42.648;23.270;2023-06-22T15:27:05;23.90;56.60
1021;DHT22;499;42.648;23.270;2023-06-22T15:29:34;24.00;51.70
1021;DHT22;499;42.648;23.270;2023-06-22T15:32:01;24.20;50.90
1021;DHT22;499;42.648;23.270;2023-06-22T15:34:28;24.50;50.00
1021;DHT22;499;42.648;23.270;2023-06-22T15:36:55;25.10;44.60
1021;DHT22;499;42.648;23.270;2023-06-22T15:39:22;25.80;42.20
1021;DHT22;499;42.648;23.270;2023-06-22T15:41:52;26.90;35.20
1021;DHT22;499;42.648;23.270;2023-06-22T15:44:20;27.90;29.00
1021;DHT22;499;42.648;23.270;2023-06-22T15:46:48;28.50;23.40
1021;DHT22;499;42.648;23.270;2023-06-22T15:49:15;28.70;21.40
1021;DHT22;499;42.648;23.270;2023-06-22T15:51:43;29.00;23.50
1021;DHT22;499;42.648;23.270;2023-06-22T15:54:10;29.80;21.40
1021;DHT22;499;42.648;23.270;2023-06-22T15:56:37;29.90;19.70
1021;DHT22;499;42.648;23.270;2023-06-22T15:59:04;30.40;19.90
1021;DHT22;499;42.648;23.270;2023-06-22T16:01:31;29.90;18.60
1021;DHT22;499;42.648;23.270;2023-06-22T16:04:00;29.30;19.60
1021;DHT22;499;42.648;23.270;2023-06-22T16:06:28;27.90;21.70